Time;durP1;ratioP1;P1;durP2;ratioP2;P2;SDS_P1;SDS_P2;PMS_P1;PMS_P2;Temp;Humidity;BMP_temperature;BMP_pressure;BME280_temperature;BME280_humidity;BME280_pressure;Samples;Min_cycle;Max_cycle;Signal;HPM_P1;HPM_P2
2022/06/05 00:00:37;;;;;;;8.60;6.22;;;;;;;;;;5064386;28;20201;-70
2022/06/05 00:03:10;;;;;;;6.93;6.22;;;;;;;;;;5064332;28;20199;-70
2022/06/05 00:05:43;;;;;;;6.82;6.22;;;;;;;;;;5064100;28;20271;-70
2022/06/05 00:08:13;;;;;;;7.28;6.47;;;;;;;;;;5063888;28;20197;-70
2022/06/05 00:10:43;;;;;;;6.68;6.03;;;;;;;;;;5064604;28;20197;-70
2022/06/05 00:13:15;;;;;;;6.72;6.22;;;;;;;;;;5064154;28;20220;-70
2022/06/05 00:15:41;;;;;;;7.15;6.50;;;;;;;;;;5064061;28;20235;-70
2022/06/05 00:18:09;;;;;;;6.43;5.95;;;;;;;;;;5062836;28;20201;-70
2022/06/05 00:20:35;;;;;;;7.95;6.60;;;;;;;;;;5063782;28;20197;-70
2022/06/05 00:23:01;;;;;;;6.38;5.88;;;;;;;;;;5063674;28;20497;-70
2022/06/05 00:25:34;;;;;;;7.03;6.25;;;;;;;;;;5063907;28;20197;-70
2022/06/05 00:28:05;;;;;;;7.57;6.43;;;;;;;;;;5063676;28;20197;-70
2022/06/05 00:30:33;;;;;;;7.05;6.10;;;;;;;;;;5063819;28;20197;-70
2022/06/05 00:33:03;;;;;;;6.88;6.32;;;;;;;;;;5063502;28;20251;-70
2022/06/05 00:35:33;;;;;;;7.63;5.80;;;;;;;;;;5063546;28;20372;-70
2022/06/05 00:38:03;;;;;;;7.13;5.97;;;;;;;;;;5063527;28;20204;-70
2022/06/05 00:40:33;;;;;;;6.38;5.90;;;;;;;;;;5063631;28;20311;-70
2022/06/05 00:43:00;;;;;;;5.90;5.45;;;;;;;;;;5063441;28;20208;-70
2022/06/05 00:45:28;;;;;;;8.20;5.40;;;;;;;;;;5063738;28;20197;-70
2022/06/05 00:47:54;;;;;;;6.22;5.82;;;;;;;;;;5063015;28;20504;-70
2022/06/05 00:50:22;;;;;;;6.45;5.95;;;;;;;;;;5063501;28;20201;-70
2022/06/05 00:52:51;;;;;;;6.97;6.15;;;;;;;;;;5063343;28;20213;-70
2022/06/05 00:55:18;;;;;;;7.65;5.95;;;;;;;;;;5063140;28;20200;-70
2022/06/05 00:57:44;;;;;;;6.25;5.75;;;;;;;;;;5062874;28;20220;-70
2022/06/05 01:00:13;;;;;;;6.47;6.05;;;;;;;;;;5063175;28;20501;-70
2022/06/05 01:02:40;;;;;;;6.90;6.40;;;;;;;;;;5062983;28;20203;-70
2022/06/05 01:05:07;;;;;;;6.15;5.75;;;;;;;;;;5062851;28;20263;-70
2022/06/05 01:07:33;;;;;;;6.63;6.22;;;;;;;;;;5062881;28;20243;-70
2022/06/05 01:10:01;;;;;;;6.93;6.28;;;;;;;;;;5062819;28;20228;-70
2022/06/05 01:12:31;;;;;;;7.00;6.55;;;;;;;;;;5062762;28;20197;-70
2022/06/05 01:15:04;;;;;;;6.88;6.43;;;;;;;;;;5062939;28;20201;-70
2022/06/05 01:17:34;;;;;;;6.75;6.25;;;;;;;;;;5062481;28;20197;-70
2022/06/05 01:20:06;;;;;;;7.53;6.80;;;;;;;;;;5062719;28;20200;-70
2022/06/05 01:22:48;;;;;;;7.93;7.30;;;;;;;;;;5062651;28;20201;-70
2022/06/05 01:25:33;;;;;;;7.82;7.13;;;;;;;;;;5061030;28;20197;-70
2022/06/05 01:28:05;;;;;;;11.82;8.30;;;;;;;;;;5062555;28;20221;-70
2022/06/05 01:30:35;;;;;;;8.48;7.70;;;;;;;;;;5062665;28;20390;-70
2022/06/05 01:33:03;;;;;;;8.52;7.72;;;;;;;;;;5062588;28;20220;-69
2022/06/05 01:35:32;;;;;;;9.50;7.20;;;;;;;;;;5062405;28;20431;-70
2022/06/05 01:38:00;;;;;;;8.40;7.65;;;;;;;;;;5062309;28;20311;-70
2022/06/05 01:40:30;;;;;;;7.97;7.22;;;;;;;;;;5062533;28;20428;-70
2022/06/05 01:42:59;;;;;;;7.53;6.93;;;;;;;;;;5061951;28;20205;-70
2022/06/05 01:45:28;;;;;;;8.30;7.68;;;;;;;;;;5062321;28;20197;-69
2022/06/05 01:47:55;;;;;;;7.60;7.10;;;;;;;;;;5061944;28;20200;-70
2022/06/05 01:50:23;;;;;;;7.72;6.97;;;;;;;;;;5062463;28;20201;-70
2022/06/05 01:52:52;;;;;;;7.55;7.05;;;;;;;;;;5062060;28;20197;-70
2022/06/05 01:55:21;;;;;;;8.18;6.85;;;;;;;;;;5062341;28;20204;-70
2022/06/05 01:57:48;;;;;;;7.78;7.03;;;;;;;;;;5062123;28;20211;-70
2022/06/05 02:00:16;;;;;;;7.20;6.55;;;;;;;;;;5062653;28;20206;-70
2022/06/05 02:02:48;;;;;;;10.15;6.97;;;;;;;;;;5062373;28;20205;-70
2022/06/05 02:05:16;;;;;;;7.55;6.95;;;;;;;;;;5062080;28;20263;-70
2022/06/05 02:07:45;;;;;;;7.50;6.80;;;;;;;;;;5062040;28;20204;-70
2022/06/05 02:10:15;;;;;;;6.85;6.35;;;;;;;;;;5062046;28;20197;-70
2022/06/05 02:12:42;;;;;;;6.88;6.35;;;;;;;;;;5061926;28;20478;-70
2022/06/05 02:15:08;;;;;;;6.68;5.88;;;;;;;;;;5062241;28;20212;-70
2022/06/05 02:17:36;;;;;;;6.43;6.07;;;;;;;;;;5061915;28;20201;-70
2022/06/05 02:20:05;;;;;;;6.60;6.00;;;;;;;;;;5062160;28;20520;-70
2022/06/05 02:22:34;;;;;;;7.10;6.47;;;;;;;;;;5061986;28;20585;-70
2022/06/05 02:25:00;;;;;;;6.90;6.50;;;;;;;;;;5061987;28;20251;-70
2022/06/05 02:27:27;;;;;;;7.63;6.90;;;;;;;;;;5061995;28;20197;-70
2022/06/05 02:29:54;;;;;;;6.80;6.30;;;;;;;;;;5062100;28;20204;-70
2022/06/05 02:32:29;;;;;;;7.20;6.65;;;;;;;;;;5061873;28;20201;-70
2022/06/05 02:35:00;;;;;;;7.13;6.53;;;;;;;;;;5061994;28;20259;-70
2022/06/05 02:37:34;;;;;;;7.38;6.70;;;;;;;;;;5061749;28;20204;-70
2022/06/05 02:40:05;;;;;;;8.88;6.68;;;;;;;;;;5061770;28;20418;-70
2022/06/05 02:42:34;;;;;;;7.88;6.82;;;;;;;;;;5064119;28;20204;-70
2022/06/05 02:45:07;;;;;;;7.65;6.90;;;;;;;;;;5065894;28;20284;-70
2022/06/05 02:47:39;;;;;;;8.30;7.15;;;;;;;;;;5065608;28;20433;-70
2022/06/05 02:50:10;;;;;;;7.22;6.72;;;;;;;;;;5065532;28;20205;-70
2022/06/05 02:52:38;;;;;;;7.55;7.05;;;;;;;;;;5065565;28;20197;-70
2022/06/05 02:55:06;;;;;;;7.13;6.63;;;;;;;;;;5065283;28;20221;-70
2022/06/05 02:57:33;;;;;;;6.65;6.03;;;;;;;;;;5065338;28;20220;-70
2022/06/05 02:59:59;;;;;;;7.07;6.45;;;;;;;;;;5065412;28;20197;-70
2022/06/05 03:05:10;;;;;;;6.97;6.47;;;;;;;;;;5065277;28;20216;-70
2022/06/05 03:07:38;;;;;;;7.00;6.60;;;;;;;;;;5065166;28;20435;-70
2022/06/05 03:10:04;;;;;;;6.63;6.22;;;;;;;;;;5065435;28;20197;-70
2022/06/05 03:12:30;;;;;;;6.78;6.35;;;;;;;;;;5065152;28;20201;-70
2022/06/05 03:15:01;;;;;;;7.15;6.65;;;;;;;;;;5065095;28;20221;-70
2022/06/05 03:17:28;;;;;;;7.13;6.72;;;;;;;;;;5064706;28;20197;-70
2022/06/05 03:19:54;;;;;;;7.97;6.43;;;;;;;;;;5065168;28;20519;-70
2022/06/05 03:22:20;;;;;;;7.25;6.53;;;;;;;;;;5065071;28;20197;-70
2022/06/05 03:24:48;;;;;;;7.05;6.55;;;;;;;;;;5065037;28;20198;-70
2022/06/05 03:27:14;;;;;;;7.72;6.75;;;;;;;;;;5064683;28;20206;-70
2022/06/05 03:29:40;;;;;;;7.22;6.72;;;;;;;;;;5064764;28;20203;-70
2022/06/05 03:32:07;;;;;;;7.00;6.53;;;;;;;;;;5064516;28;20194;-70
2022/06/05 03:34:34;;;;;;;7.05;6.60;;;;;;;;;;5064800;28;20420;-70
2022/06/05 03:37:00;;;;;;;6.75;6.18;;;;;;;;;;5064439;28;20197;-70
2022/06/05 03:39:27;;;;;;;6.65;6.15;;;;;;;;;;5064992;28;20201;-70
2022/06/05 03:41:54;;;;;;;6.68;6.30;;;;;;;;;;5064570;28;20505;-70
2022/06/05 03:44:20;;;;;;;6.50;6.10;;;;;;;;;;5064544;28;20192;-70
2022/06/05 03:46:47;;;;;;;7.32;6.72;;;;;;;;;;5064509;28;20185;-70
2022/06/05 03:49:13;;;;;;;7.95;7.25;;;;;;;;;;5064508;28;20205;-70
2022/06/05 03:51:39;;;;;;;6.97;6.47;;;;;;;;;;5064240;28;20201;-70
2022/06/05 03:54:05;;;;;;;8.45;6.90;;;;;;;;;;5064054;28;20221;-70
2022/06/05 03:56:32;;;;;;;7.32;6.70;;;;;;;;;;5064258;28;20201;-70
2022/06/05 03:58:59;;;;;;;7.72;7.13;;;;;;;;;;5064162;28;20203;-70
2022/06/05 04:01:27;;;;;;;7.78;7.13;;;;;;;;;;5064547;28;20205;-70
2022/06/05 04:03:53;;;;;;;7.70;7.00;;;;;;;;;;5064150;28;20214;-70
2022/06/05 04:06:21;;;;;;;7.45;6.75;;;;;;;;;;5063921;28;20388;-70
2022/06/05 04:08:47;;;;;;;9.18;7.32;;;;;;;;;;5064240;28;20203;-70
2022/06/05 04:11:14;;;;;;;8.18;7.47;;;;;;;;;;5064173;28;20497;-70
2022/06/05 04:13:40;;;;;;;8.10;7.30;;;;;;;;;;5063814;28;20224;-70
2022/06/05 04:16:11;;;;;;;7.63;6.95;;;;;;;;;;5063971;28;20497;-69
2022/06/05 04:18:37;;;;;;;8.88;7.10;;;;;;;;;;5064056;28;20512;-69
2022/06/05 04:21:05;;;;;;;7.78;7.03;;;;;;;;;;5063893;28;20197;-69
2022/06/05 04:23:32;;;;;;;7.70;7.10;;;;;;;;;;5063964;28;20496;-69
2022/06/05 04:25:58;;;;;;;8.60;7.65;;;;;;;;;;5063620;28;20423;-69
2022/06/05 04:28:24;;;;;;;8.07;7.38;;;;;;;;;;5063585;28;20205;-69
2022/06/05 04:30:50;;;;;;;8.13;7.20;;;;;;;;;;5063912;28;20235;-69
2022/06/05 04:33:19;;;;;;;7.43;6.82;;;;;;;;;;5063752;28;20375;-69
2022/06/05 04:35:45;;;;;;;9.10;7.25;;;;;;;;;;5063577;28;20223;-69
2022/06/05 04:38:12;;;;;;;7.40;6.80;;;;;;;;;;5063337;28;20204;-69
2022/06/05 04:40:38;;;;;;;7.47;6.88;;;;;;;;;;5063394;28;20219;-69
2022/06/05 04:43:06;;;;;;;7.88;7.38;;;;;;;;;;5063666;28;20429;-69
2022/06/05 04:45:32;;;;;;;8.02;7.32;;;;;;;;;;5063596;28;20235;-70
2022/06/05 04:47:58;;;;;;;8.60;7.75;;;;;;;;;;5063186;28;20236;-69
2022/06/05 04:50:26;;;;;;;7.85;7.35;;;;;;;;;;5063326;28;20204;-69
2022/06/05 04:52:52;;;;;;;8.65;7.80;;;;;;;;;;5063801;28;20201;-69
2022/06/05 04:55:19;;;;;;;8.35;7.63;;;;;;;;;;5063023;28;20257;-70
2022/06/05 04:57:45;;;;;;;8.32;7.63;;;;;;;;;;5063112;28;20201;-69
2022/06/05 05:00:12;;;;;;;7.70;7.25;;;;;;;;;;5063230;28;20535;-69
2022/06/05 05:02:38;;;;;;;7.97;7.57;;;;;;;;;;5063112;28;20204;-69
2022/06/05 05:05:05;;;;;;;7.90;7.28;;;;;;;;;;5062390;28;20221;-69
2022/06/05 05:07:33;;;;;;;8.23;7.63;;;;;;;;;;5062761;28;20527;-69
2022/06/05 05:09:59;;;;;;;8.90;8.20;;;;;;;;;;5063265;28;20535;-69
2022/06/05 05:12:26;;;;;;;9.25;8.38;;;;;;;;;;5063074;28;20204;-69
2022/06/05 05:14:53;;;;;;;9.93;9.07;;;;;;;;;;5062990;28;20466;-69
2022/06/05 05:17:20;;;;;;;12.32;8.32;;;;;;;;;;5062816;28;20273;-69
2022/06/05 05:19:46;;;;;;;9.52;8.82;;;;;;;;;;5062794;28;20231;-69
2022/06/05 05:22:13;;;;;;;10.23;9.35;;;;;;;;;;5062693;28;20204;-69
2022/06/05 05:24:40;;;;;;;10.43;9.70;;;;;;;;;;5062563;28;20497;-69
2022/06/05 05:27:07;;;;;;;10.07;9.27;;;;;;;;;;5062641;28;20220;-69
2022/06/05 05:29:33;;;;;;;9.13;8.38;;;;;;;;;;5062793;28;20201;-69
2022/06/05 05:31:59;;;;;;;10.95;9.77;;;;;;;;;;5062542;28;20235;-69
2022/06/05 05:34:25;;;;;;;9.93;8.98;;;;;;;;;;5062382;28;20213;-69
2022/06/05 05:36:52;;;;;;;11.45;10.30;;;;;;;;;;5062263;28;20201;-69
2022/06/05 05:42:06;;;;;;;13.18;11.80;;;;;;;;;;5062386;28;20231;-69
2022/06/05 05:44:33;;;;;;;15.30;13.05;;;;;;;;;;5062734;28;20268;-69
2022/06/05 05:47:00;;;;;;;14.05;12.50;;;;;;;;;;5062332;28;20242;-69
2022/06/05 05:49:26;;;;;;;18.23;12.98;;;;;;;;;;5062791;28;20251;-69
2022/06/05 05:51:52;;;;;;;14.45;13.18;;;;;;;;;;5062260;28;20197;-69
2022/06/05 05:54:19;;;;;;;12.80;11.50;;;;;;;;;;5062438;28;20559;-69
2022/06/05 05:56:45;;;;;;;13.10;11.85;;;;;;;;;;5062144;28;20509;-69
2022/06/05 05:59:13;;;;;;;16.80;13.60;;;;;;;;;;5062268;28;20366;-69
2022/06/05 06:01:39;;;;;;;22.63;14.32;;;;;;;;;;5062105;28;20216;-69
2022/06/05 06:04:05;;;;;;;18.02;12.70;;;;;;;;;;5061917;28;20212;-69
2022/06/05 06:06:32;;;;;;;16.85;13.52;;;;;;;;;;5062115;28;20221;-69
2022/06/05 06:08:59;;;;;;;17.23;12.30;;;;;;;;;;5062089;28;20197;-69
2022/06/05 06:11:26;;;;;;;16.67;12.77;;;;;;;;;;5061943;28;20250;-69
2022/06/05 06:13:52;;;;;;;14.27;12.13;;;;;;;;;;5062221;28;20204;-69
2022/06/05 06:16:20;;;;;;;13.70;12.02;;;;;;;;;;5062199;28;20231;-69
2022/06/05 06:18:46;;;;;;;13.57;10.95;;;;;;;;;;5066223;28;20189;-69
2022/06/05 06:21:13;;;;;;;14.05;12.60;;;;;;;;;;5066426;28;20203;-69
2022/06/05 06:23:39;;;;;;;14.35;10.38;;;;;;;;;;5066418;28;20247;-69
2022/06/05 06:26:06;;;;;;;21.85;11.50;;;;;;;;;;5066514;28;20200;-69
2022/06/05 06:28:32;;;;;;;12.55;9.50;;;;;;;;;;5065934;28;20456;-69
2022/06/05 06:30:59;;;;;;;9.30;8.40;;;;;;;;;;5065944;28;20201;-69
2022/06/05 06:33:26;;;;;;;11.23;8.60;;;;;;;;;;5065912;28;20197;-69
2022/06/05 06:35:53;;;;;;;9.68;7.72;;;;;;;;;;5065813;28;20231;-69
2022/06/05 06:38:19;;;;;;;10.57;8.57;;;;;;;;;;5065938;28;20205;-69
2022/06/05 06:40:45;;;;;;;9.68;8.02;;;;;;;;;;5066067;28;20192;-69
2022/06/05 06:43:11;;;;;;;9.93;7.60;;;;;;;;;;5065905;28;20197;-69
2022/06/05 06:45:38;;;;;;;6.28;5.72;;;;;;;;;;5065680;28;20197;-69
2022/06/05 06:48:04;;;;;;;6.35;5.82;;;;;;;;;;5065711;28;20201;-69
2022/06/05 06:50:32;;;;;;;7.32;5.57;;;;;;;;;;5065986;28;20204;-69
2022/06/05 06:52:58;;;;;;;7.38;6.13;;;;;;;;;;5065913;28;20243;-69
2022/06/05 06:55:24;;;;;;;6.28;5.68;;;;;;;;;;5065762;28;20213;-69
2022/06/05 06:57:51;;;;;;;6.55;5.97;;;;;;;;;;5065445;28;20205;-69
2022/06/05 07:00:19;;;;;;;7.95;5.55;;;;;;;;;;5065492;28;20243;-69
2022/06/05 07:02:45;;;;;;;6.57;5.65;;;;;;;;;;5065680;28;20201;-69
2022/06/05 07:05:11;;;;;;;5.68;4.22;;;;;;;;;;5065351;28;20221;-69
2022/06/05 07:07:39;;;;;;;12.20;9.93;;;;;;;;;;5065232;28;20386;-69
2022/06/05 07:10:06;;;;;;;9.63;7.40;;;;;;;;;;5065441;28;20520;-69
2022/06/05 07:12:33;;;;;;;4.95;3.95;;;;;;;;;;5065082;28;20228;-69
2022/06/05 07:14:59;;;;;;;6.00;5.28;;;;;;;;;;5065530;28;20422;-69
2022/06/05 07:17:27;;;;;;;6.63;5.35;;;;;;;;;;5065172;28;20521;-69
2022/06/05 07:19:53;;;;;;;7.88;3.95;;;;;;;;;;5065315;28;20205;-69
2022/06/05 07:22:19;;;;;;;6.60;3.15;;;;;;;;;;5065380;28;20220;-69
2022/06/05 07:24:47;;;;;;;4.13;3.80;;;;;;;;;;5065211;28;20193;-69
2022/06/05 07:27:13;;;;;;;4.97;2.78;;;;;;;;;;5064155;28;20196;-69
2022/06/05 07:29:39;;;;;;;3.33;2.70;;;;;;;;;;5065147;28;20251;-69
2022/06/05 07:32:06;;;;;;;2.88;2.67;;;;;;;;;;5064882;28;20203;-69
2022/06/05 07:34:32;;;;;;;5.97;3.33;;;;;;;;;;5064768;28;20235;-69
2022/06/05 07:36:59;;;;;;;2.60;2.50;;;;;;;;;;5064536;28;20221;-69
2022/06/05 07:39:26;;;;;;;3.13;2.22;;;;;;;;;;5064722;28;20201;-69
2022/06/05 07:41:53;;;;;;;2.85;2.22;;;;;;;;;;5064603;28;20201;-69
2022/06/05 07:44:20;;;;;;;2.97;1.90;;;;;;;;;;5064896;28;20583;-69
2022/06/05 07:46:46;;;;;;;2.03;1.90;;;;;;;;;;5064702;28;20197;-69
2022/06/05 07:49:12;;;;;;;3.90;1.98;;;;;;;;;;5067560;28;20197;-69
2022/06/05 07:54:30;;;;;;;4.20;3.72;;;;;;;;;;5064545;28;20197;-69
2022/06/05 07:56:59;;;;;;;3.33;2.88;;;;;;;;;;5064186;28;20204;-69
2022/06/05 07:59:26;;;;;;;3.50;2.78;;;;;;;;;;5064580;28;20243;-68
2022/06/05 08:01:52;;;;;;;2.78;2.58;;;;;;;;;;5064470;28;20197;-68
2022/06/05 08:04:18;;;;;;;2.28;2.08;;;;;;;;;;5064322;28;20204;-68
2022/06/05 08:06:45;;;;;;;2.97;2.22;;;;;;;;;;5064158;28;20219;-69
2022/06/05 08:09:11;;;;;;;3.72;2.72;;;;;;;;;;5064150;28;20197;-68
2022/06/05 08:11:39;;;;;;;2.58;2.22;;;;;;;;;;5064240;28;20193;-69
2022/06/05 08:14:07;;;;;;;4.10;2.42;;;;;;;;;;5064278;28;20197;-69
2022/06/05 08:16:33;;;;;;;3.30;2.92;;;;;;;;;;5064036;28;20217;-69
2022/06/05 08:18:59;;;;;;;4.85;3.00;;;;;;;;;;5064288;28;20209;-69
2022/06/05 08:21:26;;;;;;;5.03;2.20;;;;;;;;;;5064174;28;20197;-69
2022/06/05 08:23:53;;;;;;;3.53;2.55;;;;;;;;;;5063878;28;20197;-69
2022/06/05 08:26:19;;;;;;;4.40;2.22;;;;;;;;;;5063894;28;20243;-68
2022/06/05 08:28:46;;;;;;;2.83;2.20;;;;;;;;;;5063835;28;20235;-69
2022/06/05 08:31:13;;;;;;;3.00;2.22;;;;;;;;;;5063860;28;20500;-69
2022/06/05 08:33:41;;;;;;;4.50;3.00;;;;;;;;;;5064199;28;20258;-69
2022/06/05 08:36:07;;;;;;;4.88;3.42;;;;;;;;;;5063524;28;20253;-70
2022/06/05 08:41:29;;;;;;;2.78;2.42;;;;;;;;;;5063176;28;20196;-70
2022/06/05 08:44:00;;;;;;;2.42;2.33;;;;;;;;;;5063519;28;20196;-69
2022/06/05 08:46:30;;;;;;;2.58;2.17;;;;;;;;;;5063196;28;20200;-69
2022/06/05 08:48:58;;;;;;;2.38;2.00;;;;;;;;;;5063664;28;20193;-69
2022/06/05 08:51:32;;;;;;;2.25;2.15;;;;;;;;;;5063342;28;20263;-69
2022/06/05 08:54:02;;;;;;;2.45;2.10;;;;;;;;;;5063781;28;20238;-69
2022/06/05 08:56:32;;;;;;;2.00;1.90;;;;;;;;;;5063042;28;20397;-69
2022/06/05 08:59:00;;;;;;;4.30;1.80;;;;;;;;;;5063407;28;20204;-69
2022/06/05 09:01:32;;;;;;;3.55;1.70;;;;;;;;;;5063048;28;20211;-69
2022/06/05 09:04:02;;;;;;;1.98;1.70;;;;;;;;;;5063255;28;20209;-69
2022/06/05 09:06:33;;;;;;;2.17;1.65;;;;;;;;;;5062886;28;20551;-69
2022/06/05 09:08:59;;;;;;;1.85;1.65;;;;;;;;;;5063234;28;20189;-69
2022/06/05 09:11:30;;;;;;;2.17;2.05;;;;;;;;;;5063044;28;20201;-69
2022/06/05 09:14:01;;;;;;;3.75;2.20;;;;;;;;;;5063301;28;20192;-69
2022/06/05 09:16:30;;;;;;;2.75;2.55;;;;;;;;;;5062866;28;20228;-69
2022/06/05 09:18:56;;;;;;;2.85;2.53;;;;;;;;;;5062831;28;20203;-69
2022/06/05 09:21:24;;;;;;;3.13;2.25;;;;;;;;;;5062914;28;20205;-69
2022/06/05 09:23:57;;;;;;;3.58;3.42;;;;;;;;;;5062567;28;20412;-69
2022/06/05 09:26:25;;;;;;;3.72;2.53;;;;;;;;;;5062410;28;20185;-69
2022/06/05 09:29:00;;;;;;;4.75;2.88;;;;;;;;;;5062447;28;20197;-69
2022/06/05 09:31:36;;;;;;;2.20;2.00;;;;;;;;;;5062189;28;20204;-69
2022/06/05 09:34:05;;;;;;;6.72;3.55;;;;;;;;;;5062338;28;20204;-69
2022/06/05 09:36:33;;;;;;;2.42;2.22;;;;;;;;;;5061817;28;20216;-69
2022/06/05 09:39:02;;;;;;;2.05;1.35;;;;;;;;;;5062372;28;20200;-69
2022/06/05 09:41:32;;;;;;;2.20;2.10;;;;;;;;;;5062299;28;20200;-69
2022/06/05 09:44:08;;;;;;;4.35;3.38;;;;;;;;;;5062229;28;20197;-69
2022/06/05 09:46:49;;;;;;;3.20;2.30;;;;;;;;;;5062025;28;20390;-69
2022/06/05 09:49:18;;;;;;;2.58;1.40;;;;;;;;;;5062121;28;20242;-69
2022/06/05 09:51:45;;;;;;;1.25;1.10;;;;;;;;;;5061879;28;20268;-69
2022/06/05 09:54:15;;;;;;;3.90;1.48;;;;;;;;;;5061869;28;20197;-69
2022/06/05 09:59:30;;;;;;;5.30;1.70;;;;;;;;;;5061524;28;20260;-69
2022/06/05 10:02:00;;;;;;;3.70;0.90;;;;;;;;;;5061985;28;20197;-69
2022/06/05 10:04:29;;;;;;;4.60;1.25;;;;;;;;;;5062231;28;20512;-69
2022/06/05 10:06:57;;;;;;;1.17;1.17;;;;;;;;;;5062223;28;20220;-69
2022/06/05 10:09:24;;;;;;;2.13;2.03;;;;;;;;;;5062059;28;20197;-69
2022/06/05 10:11:52;;;;;;;1.70;1.65;;;;;;;;;;5062139;28;20250;-69
2022/06/05 10:14:36;;;;;;;2.97;2.05;;;;;;;;;;5062593;28;20497;-69
2022/06/05 10:17:21;;;;;;;2.05;1.33;;;;;;;;;;5061604;28;20454;-69
2022/06/05 10:19:55;;;;;;;1.83;1.58;;;;;;;;;;5062330;28;20468;-70
2022/06/05 10:22:25;;;;;;;1.15;1.13;;;;;;;;;;5062050;28;20357;-71
2022/06/05 10:24:55;;;;;;;4.72;1.75;;;;;;;;;;5062325;28;20201;-69
2022/06/05 10:27:22;;;;;;;3.60;1.50;;;;;;;;;;5060392;28;20193;-70
2022/06/05 10:29:50;;;;;;;3.63;1.85;;;;;;;;;;5052322;28;20192;-69
2022/06/05 10:32:21;;;;;;;4.13;2.00;;;;;;;;;;5056786;28;20394;-70
2022/06/05 10:34:52;;;;;;;4.97;2.47;;;;;;;;;;5062290;28;20422;-71
2022/06/05 10:37:21;;;;;;;2.30;2.20;;;;;;;;;;5061925;28;20221;-70
2022/06/05 10:39:55;;;;;;;2.30;2.20;;;;;;;;;;5062166;28;20445;-71
2022/06/05 10:42:26;;;;;;;1.98;1.88;;;;;;;;;;5062066;28;20212;-70
2022/06/05 10:45:03;;;;;;;2.75;2.53;;;;;;;;;;5062272;28;20612;-70
2022/06/05 10:47:33;;;;;;;1.60;1.50;;;;;;;;;;5061883;28;20193;-70
2022/06/05 10:50:05;;;;;;;2.25;1.77;;;;;;;;;;5061827;28;20201;-69
2022/06/05 10:52:36;;;;;;;2.35;1.90;;;;;;;;;;5062110;28;20197;-70
2022/06/05 10:55:16;;;;;;;3.25;1.73;;;;;;;;;;5061970;28;20647;-70
2022/06/05 10:57:47;;;;;;;3.85;1.88;;;;;;;;;;5061405;28;20232;-70
2022/06/05 11:00:17;;;;;;;6.28;2.10;;;;;;;;;;5062371;28;20201;-70
2022/06/05 11:03:02;;;;;;;6.97;2.38;;;;;;;;;;5062934;28;20217;-71
2022/06/05 11:05:38;;;;;;;5.43;2.97;;;;;;;;;;5065815;28;20263;-69
2022/06/05 11:08:09;;;;;;;7.15;2.75;;;;;;;;;;5065236;28;20496;-70
2022/06/05 11:13:42;;;;;;;6.65;3.10;;;;;;;;;;5054361;28;20552;-69
2022/06/05 11:16:17;;;;;;;2.85;2.10;;;;;;;;;;5051111;28;20247;-70
2022/06/05 11:18:47;;;;;;;2.45;2.20;;;;;;;;;;5059558;28;20204;-71
2022/06/05 11:21:16;;;;;;;3.10;2.80;;;;;;;;;;5060814;28;20228;-71
2022/06/05 11:23:44;;;;;;;4.55;2.42;;;;;;;;;;5058612;28;20212;-70
2022/06/05 11:26:20;;;;;;;2.80;2.60;;;;;;;;;;5059519;28;20247;-69
2022/06/05 11:28:53;;;;;;;5.53;2.22;;;;;;;;;;5059104;28;20213;-70
2022/06/05 11:31:24;;;;;;;2.50;2.25;;;;;;;;;;5059186;28;20205;-71
2022/06/05 11:33:56;;;;;;;3.08;2.33;;;;;;;;;;5059296;28;20213;-70
2022/06/05 11:36:24;;;;;;;8.88;2.75;;;;;;;;;;5059031;28;20556;-70
2022/06/05 11:38:59;;;;;;;2.42;2.20;;;;;;;;;;5057836;28;20214;-69
2022/06/05 11:41:27;;;;;;;6.07;2.33;;;;;;;;;;5059217;28;20215;-69
2022/06/05 11:44:07;;;;;;;5.85;2.53;;;;;;;;;;5059166;28;20717;-71
2022/06/05 11:46:39;;;;;;;4.10;2.95;;;;;;;;;;5059226;28;20212;-70
2022/06/05 11:49:11;;;;;;;3.33;2.20;;;;;;;;;;5059102;28;20240;-70
2022/06/05 11:51:43;;;;;;;3.40;2.30;;;;;;;;;;5058521;28;20213;-70
2022/06/05 11:54:14;;;;;;;5.18;2.50;;;;;;;;;;5053050;28;20216;-70
2022/06/05 11:56:57;;;;;;;3.22;2.60;;;;;;;;;;5038860;28;20221;-70
2022/06/05 11:59:28;;;;;;;3.53;2.33;;;;;;;;;;5039004;28;20213;-70
2022/06/05 12:01:57;;;;;;;10.02;2.83;;;;;;;;;;5039107;28;20209;-70
2022/06/05 12:04:31;;;;;;;6.18;2.38;;;;;;;;;;5038706;28;20217;-71
2022/06/05 12:06:59;;;;;;;8.23;4.93;;;;;;;;;;5040956;28;20220;-69
2022/06/05 12:09:27;;;;;;;5.07;3.63;;;;;;;;;;5053168;28;20201;-70
2022/06/05 12:11:57;;;;;;;2.92;2.72;;;;;;;;;;5064646;28;20370;-70
2022/06/05 12:14:25;;;;;;;2.88;2.67;;;;;;;;;;5048090;28;20489;-71
2022/06/05 12:16:55;;;;;;;5.50;2.97;;;;;;;;;;5043946;28;20249;-70
2022/06/05 12:19:28;;;;;;;3.63;2.67;;;;;;;;;;5045380;28;20223;-71
2022/06/05 12:22:00;;;;;;;2.92;2.05;;;;;;;;;;5044163;28;20201;-71
2022/06/05 12:24:31;;;;;;;3.15;2.30;;;;;;;;;;5044393;28;20244;-70
2022/06/05 12:27:00;;;;;;;4.55;2.42;;;;;;;;;;5043852;28;20257;-70
2022/06/05 12:29:31;;;;;;;4.50;2.10;;;;;;;;;;5044099;28;20203;-71
2022/06/05 12:32:01;;;;;;;2.90;2.20;;;;;;;;;;5044423;28;20220;-70
2022/06/05 12:34:29;;;;;;;3.90;2.00;;;;;;;;;;5044384;28;20197;-72
2022/06/05 12:36:58;;;;;;;2.33;2.10;;;;;;;;;;5043480;28;20232;-69
2022/06/05 12:39:27;;;;;;;3.58;2.50;;;;;;;;;;5043997;28;20198;-71
2022/06/05 12:41:59;;;;;;;6.28;2.10;;;;;;;;;;5043790;28;20197;-70
2022/06/05 12:44:27;;;;;;;3.65;2.10;;;;;;;;;;5043880;28;20197;-70
2022/06/05 12:46:58;;;;;;;5.72;2.05;;;;;;;;;;5043646;28;20193;-71
2022/06/05 12:49:28;;;;;;;2.05;1.40;;;;;;;;;;5043633;28;20185;-71
2022/06/05 12:52:16;;;;;;;3.72;1.83;;;;;;;;;;5043657;28;20204;-71
2022/06/05 12:54:47;;;;;;;3.33;1.50;;;;;;;;;;5043877;28;20185;-71
2022/06/05 12:57:16;;;;;;;3.50;1.52;;;;;;;;;;5043610;28;20228;-70
2022/06/05 12:59:48;;;;;;;2.60;1.58;;;;;;;;;;5043377;28;20209;-72
2022/06/05 13:02:22;;;;;;;2.72;1.40;;;;;;;;;;5043201;28;20261;-71
2022/06/05 13:04:52;;;;;;;2.67;1.27;;;;;;;;;;5043043;28;20204;-71
2022/06/05 13:07:20;;;;;;;2.08;1.40;;;;;;;;;;5043565;28;20201;-71
2022/06/05 13:09:50;;;;;;;4.10;1.45;;;;;;;;;;5043267;28;20255;-71
2022/06/05 13:12:22;;;;;;;2.45;1.40;;;;;;;;;;5043261;28;20217;-70
2022/06/05 13:14:50;;;;;;;1.52;1.38;;;;;;;;;;5043190;28;20197;-70
2022/06/05 13:17:20;;;;;;;3.45;1.15;;;;;;;;;;5042612;28;20220;-70
2022/06/05 13:19:50;;;;;;;4.15;1.42;;;;;;;;;;5043028;28;20208;-70
2022/06/05 13:22:19;;;;;;;1.45;1.33;;;;;;;;;;5043090;28;20516;-72
2022/06/05 13:24:50;;;;;;;1.65;1.30;;;;;;;;;;5043014;28;20262;-70
2022/06/05 13:27:21;;;;;;;3.97;1.58;;;;;;;;;;5042749;28;20376;-70
2022/06/05 13:29:51;;;;;;;2.67;1.25;;;;;;;;;;5042937;28;20205;-71
2022/06/05 13:32:20;;;;;;;1.92;1.60;;;;;;;;;;5043200;28;20205;-71
2022/06/05 13:34:48;;;;;;;4.85;1.73;;;;;;;;;;5042748;28;20463;-71
2022/06/05 13:37:19;;;;;;;1.30;1.10;;;;;;;;;;5042587;28;20448;-71
2022/06/05 13:39:48;;;;;;;4.05;1.50;;;;;;;;;;5042781;28;20201;-70
2022/06/05 13:42:18;;;;;;;2.35;1.55;;;;;;;;;;5042984;28;20197;-70
2022/06/05 13:44:52;;;;;;;2.00;1.77;;;;;;;;;;5042828;28;20213;-71
2022/06/05 13:47:24;;;;;;;3.47;1.33;;;;;;;;;;5042588;28;20207;-70
2022/06/05 13:49:56;;;;;;;4.63;1.80;;;;;;;;;;5042677;28;20186;-71
2022/06/05 13:52:29;;;;;;;2.20;1.75;;;;;;;;;;5042891;28;20198;-72
2022/06/05 13:55:00;;;;;;;5.90;1.77;;;;;;;;;;5042386;28;20197;-70
2022/06/05 13:57:28;;;;;;;1.92;1.38;;;;;;;;;;5042083;28;20216;-72
2022/06/05 13:59:58;;;;;;;1.98;1.63;;;;;;;;;;5042612;28;20197;-71
2022/06/05 14:02:30;;;;;;;3.80;1.65;;;;;;;;;;5042486;28;20373;-69
2022/06/05 14:04:59;;;;;;;5.60;1.75;;;;;;;;;;5041970;28;20221;-70
2022/06/05 14:07:28;;;;;;;3.33;1.20;;;;;;;;;;5041957;28;20501;-69
2022/06/05 14:10:05;;;;;;;2.78;1.42;;;;;;;;;;5042133;28;20221;-70
2022/06/05 14:12:31;;;;;;;2.72;0.90;;;;;;;;;;5042219;28;20201;-70
2022/06/05 14:15:12;;;;;;;2.60;1.13;;;;;;;;;;5042163;28;20198;-70
2022/06/05 14:17:39;;;;;;;6.28;1.40;;;;;;;;;;5042247;28;20220;-70
2022/06/05 14:20:08;;;;;;;3.17;1.20;;;;;;;;;;5041853;28;20364;-69
2022/06/05 14:22:35;;;;;;;3.95;1.20;;;;;;;;;;5042205;28;20205;-69
2022/06/05 14:25:02;;;;;;;3.35;1.75;;;;;;;;;;5041923;28;20204;-70
2022/06/05 14:27:30;;;;;;;5.22;3.45;;;;;;;;;;5041673;28;20201;-69
2022/06/05 14:29:57;;;;;;;4.07;1.25;;;;;;;;;;5041992;28;20203;-69
2022/06/05 14:32:26;;;;;;;2.75;2.22;;;;;;;;;;5041827;28;20201;-69
2022/06/05 14:35:08;;;;;;;3.08;1.83;;;;;;;;;;5042269;28;20201;-70
2022/06/05 14:37:37;;;;;;;3.78;1.42;;;;;;;;;;5042604;28;20232;-69
2022/06/05 14:40:05;;;;;;;3.83;1.25;;;;;;;;;;5045821;28;20204;-69
2022/06/05 14:42:35;;;;;;;4.68;1.20;;;;;;;;;;5045926;28;20202;-69
2022/06/05 14:45:03;;;;;;;2.67;1.40;;;;;;;;;;5045677;28;20201;-69
2022/06/05 14:47:39;;;;;;;1.77;1.33;;;;;;;;;;5045587;28;20412;-69
2022/06/05 14:50:08;;;;;;;1.83;1.65;;;;;;;;;;5045769;28;20197;-69
2022/06/05 14:52:38;;;;;;;5.80;2.50;;;;;;;;;;5045708;28;20424;-69
2022/06/05 14:57:57;;;;;;;1.80;1.70;;;;;;;;;;5045366;28;20228;-69
2022/06/05 15:00:26;;;;;;;3.53;1.70;;;;;;;;;;5045484;28;20198;-70
2022/06/05 15:03:01;;;;;;;3.08;1.30;;;;;;;;;;5045286;28;20248;-70
2022/06/05 15:05:29;;;;;;;4.65;1.35;;;;;;;;;;5045079;28;20532;-71
2022/06/05 15:07:58;;;;;;;4.00;1.60;;;;;;;;;;5045066;28;20193;-70
2022/06/05 15:10:28;;;;;;;2.70;1.58;;;;;;;;;;5045695;28;20363;-70